sensor_id;sensor_type;location;lat;lon;timestamp;P1;durP1;ratioP1;P2;durP2;ratioP2
71838;SDS011;59687;37.520;15.068;2023-02-04T00:00:50;9.60;;;4.57;;
71838;SDS011;59687;37.520;15.068;2023-02-04T00:03:17;9.95;;;4.68;;
71838;SDS011;59687;37.520;15.068;2023-02-04T00:05:44;8.47;;;4.57;;
71838;SDS011;59687;37.520;15.068;2023-02-04T00:08:11;9.35;;;4.85;;
71838;SDS011;59687;37.520;15.068;2023-02-04T00:10:41;10.00;;;4.85;;
71838;SDS011;59687;37.520;15.068;2023-02-04T00:13:08;7.10;;;4.47;;
71838;SDS011;59687;37.520;15.068;2023-02-04T00:15:35;9.90;;;4.30;;
71838;SDS011;59687;37.520;15.068;2023-02-04T00:18:02;9.10;;;3.90;;
71838;SDS011;59687;37.520;15.068;2023-02-04T00:20:31;8.20;;;3.63;;
71838;SDS011;59687;37.520;15.068;2023-02-04T00:22:58;7.32;;;3.40;;
71838;SDS011;59687;37.520;15.068;2023-02-04T00:25:25;8.57;;;3.72;;
71838;SDS011;59687;37.520;15.068;2023-02-04T00:27:52;6.53;;;3.25;;
71838;SDS011;59687;37.520;15.068;2023-02-04T00:30:24;6.53;;;3.33;;
71838;SDS011;59687;37.520;15.068;2023-02-04T00:32:51;8.80;;;3.50;;
71838;SDS011;59687;37.520;15.068;2023-02-04T00:35:20;6.65;;;3.40;;
71838;SDS011;59687;37.520;15.068;2023-02-04T00:37:52;7.43;;;3.42;;
71838;SDS011;59687;37.520;15.068;2023-02-04T00:40:20;7.05;;;3.60;;
71838;SDS011;59687;37.520;15.068;2023-02-04T00:42:46;6.83;;;3.37;;
71838;SDS011;59687;37.520;15.068;2023-02-04T00:45:13;6.82;;;3.22;;
71838;SDS011;59687;37.520;15.068;2023-02-04T00:47:42;7.97;;;3.38;;
71838;SDS011;59687;37.520;15.068;2023-02-04T00:50:10;10.13;;;3.65;;
71838;SDS011;59687;37.520;15.068;2023-02-04T00:52:37;7.07;;;3.20;;
71838;SDS011;59687;37.520;15.068;2023-02-04T00:55:04;6.70;;;3.23;;
71838;SDS011;59687;37.520;15.068;2023-02-04T00:57:33;7.97;;;3.45;;
71838;SDS011;59687;37.520;15.068;2023-02-04T01:00:03;6.72;;;3.28;;
71838;SDS011;59687;37.520;15.068;2023-02-04T01:02:31;6.25;;;3.13;;
71838;SDS011;59687;37.520;15.068;2023-02-04T01:04:58;6.47;;;3.30;;
71838;SDS011;59687;37.520;15.068;2023-02-04T01:07:25;8.47;;;3.37;;
71838;SDS011;59687;37.520;15.068;2023-02-04T01:09:53;7.28;;;3.70;;
71838;SDS011;59687;37.520;15.068;2023-02-04T01:12:20;8.68;;;3.70;;
71838;SDS011;59687;37.520;15.068;2023-02-04T01:14:50;8.13;;;3.75;;
71838;SDS011;59687;37.520;15.068;2023-02-04T01:17:17;6.82;;;3.50;;
71838;SDS011;59687;37.520;15.068;2023-02-04T01:19:45;5.83;;;3.37;;
71838;SDS011;59687;37.520;15.068;2023-02-04T01:22:12;6.25;;;3.40;;
71838;SDS011;59687;37.520;15.068;2023-02-04T01:24:39;7.03;;;3.47;;
71838;SDS011;59687;37.520;15.068;2023-02-04T01:27:25;6.93;;;3.15;;
71838;SDS011;59687;37.520;15.068;2023-02-04T01:29:56;7.20;;;3.35;;
71838;SDS011;59687;37.520;15.068;2023-02-04T01:32:23;7.67;;;3.60;;
71838;SDS011;59687;37.520;15.068;2023-02-04T01:34:53;10.20;;;3.63;;
71838;SDS011;59687;37.520;15.068;2023-02-04T01:37:23;6.25;;;3.25;;
71838;SDS011;59687;37.520;15.068;2023-02-04T01:39:51;6.05;;;3.15;;
71838;SDS011;59687;37.520;15.068;2023-02-04T01:42:20;8.00;;;3.70;;
71838;SDS011;59687;37.520;15.068;2023-02-04T01:44:47;7.70;;;4.27;;
71838;SDS011;59687;37.520;15.068;2023-02-04T01:47:16;11.38;;;4.82;;
71838;SDS011;59687;37.520;15.068;2023-02-04T01:49:43;8.02;;;4.22;;
71838;SDS011;59687;37.520;15.068;2023-02-04T01:52:20;8.88;;;3.65;;
71838;SDS011;59687;37.520;15.068;2023-02-04T01:54:49;6.80;;;3.38;;
71838;SDS011;59687;37.520;15.068;2023-02-04T01:57:17;6.73;;;3.80;;
71838;SDS011;59687;37.520;15.068;2023-02-04T01:59:45;8.07;;;3.58;;
71838;SDS011;59687;37.520;15.068;2023-02-04T02:05:16;6.90;;;3.00;;
71838;SDS011;59687;37.520;15.068;2023-02-04T02:07:46;7.97;;;3.40;;
71838;SDS011;59687;37.520;15.068;2023-02-04T02:10:15;7.67;;;3.13;;
71838;SDS011;59687;37.520;15.068;2023-02-04T02:12:49;6.90;;;3.25;;
71838;SDS011;59687;37.520;15.068;2023-02-04T02:17:53;8.13;;;3.55;;
71838;SDS011;59687;37.520;15.068;2023-02-04T02:20:24;6.85;;;3.30;;
71838;SDS011;59687;37.520;15.068;2023-02-04T02:22:59;8.33;;;3.67;;
71838;SDS011;59687;37.520;15.068;2023-02-04T02:25:30;8.15;;;3.80;;
71838;SDS011;59687;37.520;15.068;2023-02-04T02:28:02;12.65;;;4.22;;
71838;SDS011;59687;37.520;15.068;2023-02-04T02:30:32;6.82;;;3.38;;
71838;SDS011;59687;37.520;15.068;2023-02-04T02:32:59;8.30;;;3.60;;
71838;SDS011;59687;37.520;15.068;2023-02-04T02:35:27;8.33;;;4.07;;
71838;SDS011;59687;37.520;15.068;2023-02-04T02:37:58;10.55;;;4.18;;
71838;SDS011;59687;37.520;15.068;2023-02-04T02:40:27;9.02;;;4.93;;
71838;SDS011;59687;37.520;15.068;2023-02-04T02:42:56;9.05;;;4.03;;
71838;SDS011;59687;37.520;15.068;2023-02-04T02:45:24;8.90;;;3.70;;
71838;SDS011;59687;37.520;15.068;2023-02-04T02:48:02;7.57;;;3.80;;
71838;SDS011;59687;37.520;15.068;2023-02-04T02:50:29;9.98;;;4.30;;
71838;SDS011;59687;37.520;15.068;2023-02-04T02:53:00;7.43;;;3.90;;
71838;SDS011;59687;37.520;15.068;2023-02-04T02:55:31;7.80;;;3.70;;
71838;SDS011;59687;37.520;15.068;2023-02-04T02:58:01;7.75;;;3.47;;
71838;SDS011;59687;37.520;15.068;2023-02-04T03:00:28;8.57;;;3.53;;
71838;SDS011;59687;37.520;15.068;2023-02-04T03:05:41;7.78;;;3.95;;
71838;SDS011;59687;37.520;15.068;2023-02-04T03:08:13;10.07;;;3.97;;
71838;SDS011;59687;37.520;15.068;2023-02-04T03:10:43;9.27;;;3.83;;
71838;SDS011;59687;37.520;15.068;2023-02-04T03:13:11;11.33;;;3.90;;
71838;SDS011;59687;37.520;15.068;2023-02-04T03:15:40;10.35;;;4.15;;
71838;SDS011;59687;37.520;15.068;2023-02-04T03:18:09;7.93;;;4.00;;
71838;SDS011;59687;37.520;15.068;2023-02-04T03:20:39;10.18;;;4.13;;
71838;SDS011;59687;37.520;15.068;2023-02-04T03:23:08;9.75;;;4.47;;
71838;SDS011;59687;37.520;15.068;2023-02-04T03:25:35;11.83;;;4.30;;
71838;SDS011;59687;37.520;15.068;2023-02-04T03:28:02;13.68;;;3.97;;
71838;SDS011;59687;37.520;15.068;2023-02-04T03:30:30;10.73;;;4.70;;
71838;SDS011;59687;37.520;15.068;2023-02-04T03:32:59;7.25;;;3.78;;
71838;SDS011;59687;37.520;15.068;2023-02-04T03:35:26;8.45;;;3.83;;
71838;SDS011;59687;37.520;15.068;2023-02-04T03:37:53;11.30;;;4.33;;
71838;SDS011;59687;37.520;15.068;2023-02-04T03:40:20;8.15;;;4.30;;
71838;SDS011;59687;37.520;15.068;2023-02-04T03:42:47;7.78;;;3.85;;
71838;SDS011;59687;37.520;15.068;2023-02-04T03:45:18;9.30;;;4.13;;
71838;SDS011;59687;37.520;15.068;2023-02-04T03:47:45;7.28;;;3.40;;
71838;SDS011;59687;37.520;15.068;2023-02-04T03:50:14;8.70;;;4.17;;
71838;SDS011;59687;37.520;15.068;2023-02-04T03:52:41;7.45;;;3.58;;
71838;SDS011;59687;37.520;15.068;2023-02-04T03:55:10;8.20;;;4.50;;
71838;SDS011;59687;37.520;15.068;2023-02-04T03:57:37;8.23;;;3.80;;
71838;SDS011;59687;37.520;15.068;2023-02-04T04:00:06;8.95;;;4.13;;
71838;SDS011;59687;37.520;15.068;2023-02-04T04:02:37;10.23;;;4.57;;
71838;SDS011;59687;37.520;15.068;2023-02-04T04:05:04;8.82;;;4.55;;
71838;SDS011;59687;37.520;15.068;2023-02-04T04:07:31;8.60;;;4.13;;
71838;SDS011;59687;37.520;15.068;2023-02-04T04:09:58;7.47;;;3.50;;
71838;SDS011;59687;37.520;15.068;2023-02-04T04:12:25;9.00;;;4.28;;
71838;SDS011;59687;37.520;15.068;2023-02-04T04:14:52;10.53;;;3.83;;
71838;SDS011;59687;37.520;15.068;2023-02-04T04:17:32;8.60;;;3.92;;
71838;SDS011;59687;37.520;15.068;2023-02-04T04:19:59;8.20;;;4.25;;
71838;SDS011;59687;37.520;15.068;2023-02-04T04:22:26;8.70;;;4.03;;
71838;SDS011;59687;37.520;15.068;2023-02-04T04:24:55;8.82;;;4.40;;
71838;SDS011;59687;37.520;15.068;2023-02-04T04:27:22;9.20;;;4.43;;
71838;SDS011;59687;37.520;15.068;2023-02-04T04:29:50;11.35;;;5.00;;
71838;SDS011;59687;37.520;15.068;2023-02-04T04:32:17;10.10;;;4.45;;
71838;SDS011;59687;37.520;15.068;2023-02-04T04:34:47;9.75;;;4.70;;
71838;SDS011;59687;37.520;15.068;2023-02-04T04:37:14;15.30;;;5.32;;
71838;SDS011;59687;37.520;15.068;2023-02-04T04:39:43;9.70;;;4.70;;
71838;SDS011;59687;37.520;15.068;2023-02-04T04:42:10;11.13;;;4.50;;
71838;SDS011;59687;37.520;15.068;2023-02-04T04:44:41;9.63;;;4.72;;
71838;SDS011;59687;37.520;15.068;2023-02-04T04:47:15;8.65;;;5.03;;
71838;SDS011;59687;37.520;15.068;2023-02-04T04:49:44;10.25;;;4.65;;
71838;SDS011;59687;37.520;15.068;2023-02-04T04:52:11;9.27;;;4.67;;
71838;SDS011;59687;37.520;15.068;2023-02-04T04:54:39;10.43;;;5.70;;
71838;SDS011;59687;37.520;15.068;2023-02-04T04:57:08;10.85;;;5.00;;
71838;SDS011;59687;37.520;15.068;2023-02-04T04:59:36;12.57;;;5.45;;
71838;SDS011;59687;37.520;15.068;2023-02-04T05:02:03;10.23;;;4.80;;
71838;SDS011;59687;37.520;15.068;2023-02-04T05:04:32;9.13;;;5.03;;
71838;SDS011;59687;37.520;15.068;2023-02-04T05:07:01;11.23;;;5.95;;
71838;SDS011;59687;37.520;15.068;2023-02-04T05:09:28;9.85;;;5.35;;
71838;SDS011;59687;37.520;15.068;2023-02-04T05:11:55;11.27;;;5.70;;
71838;SDS011;59687;37.520;15.068;2023-02-04T05:14:22;11.52;;;5.65;;
71838;SDS011;59687;37.520;15.068;2023-02-04T05:16:49;11.33;;;5.30;;
71838;SDS011;59687;37.520;15.068;2023-02-04T05:19:18;11.35;;;5.32;;
71838;SDS011;59687;37.520;15.068;2023-02-04T05:21:45;12.55;;;5.38;;
71838;SDS011;59687;37.520;15.068;2023-02-04T05:24:12;11.68;;;5.93;;
71838;SDS011;59687;37.520;15.068;2023-02-04T05:26:39;11.68;;;5.32;;
71838;SDS011;59687;37.520;15.068;2023-02-04T05:29:06;10.53;;;5.50;;
71838;SDS011;59687;37.520;15.068;2023-02-04T05:31:36;12.98;;;5.70;;
71838;SDS011;59687;37.520;15.068;2023-02-04T05:34:03;12.18;;;5.90;;
71838;SDS011;59687;37.520;15.068;2023-02-04T05:36:30;10.13;;;5.30;;
71838;SDS011;59687;37.520;15.068;2023-02-04T05:38:57;12.10;;;6.15;;
71838;SDS011;59687;37.520;15.068;2023-02-04T05:41:25;12.57;;;5.80;;
71838;SDS011;59687;37.520;15.068;2023-02-04T05:43:53;12.98;;;6.20;;
71838;SDS011;59687;37.520;15.068;2023-02-04T05:46:20;11.88;;;5.60;;
71838;SDS011;59687;37.520;15.068;2023-02-04T05:48:47;11.52;;;6.03;;
71838;SDS011;59687;37.520;15.068;2023-02-04T05:51:15;17.35;;;7.57;;
71838;SDS011;59687;37.520;15.068;2023-02-04T05:53:42;13.90;;;6.17;;
71838;SDS011;59687;37.520;15.068;2023-02-04T05:56:10;12.23;;;6.05;;
71838;SDS011;59687;37.520;15.068;2023-02-04T05:58:37;11.35;;;5.85;;
71838;SDS011;59687;37.520;15.068;2023-02-04T06:01:05;10.77;;;5.45;;
71838;SDS011;59687;37.520;15.068;2023-02-04T06:03:35;11.32;;;5.65;;
71838;SDS011;59687;37.520;15.068;2023-02-04T06:06:04;13.40;;;6.03;;
71838;SDS011;59687;37.520;15.068;2023-02-04T06:08:31;11.98;;;6.05;;
71838;SDS011;59687;37.520;15.068;2023-02-04T06:13:29;10.05;;;6.03;;
71838;SDS011;59687;37.520;15.068;2023-02-04T06:15:56;11.30;;;5.63;;
71838;SDS011;59687;37.520;15.068;2023-02-04T06:18:22;12.03;;;6.00;;
71838;SDS011;59687;37.520;15.068;2023-02-04T06:20:49;10.18;;;5.57;;
71838;SDS011;59687;37.520;15.068;2023-02-04T06:23:18;9.02;;;5.75;;
71838;SDS011;59687;37.520;15.068;2023-02-04T06:25:45;8.75;;;4.68;;
71838;SDS011;59687;37.520;15.068;2023-02-04T06:28:14;10.00;;;5.00;;
71838;SDS011;59687;37.520;15.068;2023-02-04T06:30:41;9.17;;;4.63;;
71838;SDS011;59687;37.520;15.068;2023-02-04T06:33:10;10.43;;;4.53;;
71838;SDS011;59687;37.520;15.068;2023-02-04T06:35:37;8.60;;;4.35;;
71838;SDS011;59687;37.520;15.068;2023-02-04T06:38:05;8.02;;;4.38;;
71838;SDS011;59687;37.520;15.068;2023-02-04T06:40:34;10.23;;;4.40;;
71838;SDS011;59687;37.520;15.068;2023-02-04T06:43:01;10.23;;;4.87;;
71838;SDS011;59687;37.520;15.068;2023-02-04T06:45:30;5.90;;;3.88;;
71838;SDS011;59687;37.520;15.068;2023-02-04T06:48:00;8.13;;;4.40;;
71838;SDS011;59687;37.520;15.068;2023-02-04T06:50:27;9.13;;;4.05;;
71838;SDS011;59687;37.520;15.068;2023-02-04T06:52:54;8.45;;;4.15;;
71838;SDS011;59687;37.520;15.068;2023-02-04T06:55:21;7.77;;;3.80;;
71838;SDS011;59687;37.520;15.068;2023-02-04T06:57:48;8.27;;;4.05;;
71838;SDS011;59687;37.520;15.068;2023-02-04T07:00:15;7.32;;;3.55;;
71838;SDS011;59687;37.520;15.068;2023-02-04T07:02:42;7.55;;;3.70;;
71838;SDS011;59687;37.520;15.068;2023-02-04T07:05:11;8.30;;;3.90;;
71838;SDS011;59687;37.520;15.068;2023-02-04T07:07:44;6.90;;;3.73;;
71838;SDS011;59687;37.520;15.068;2023-02-04T07:10:12;8.85;;;4.15;;
71838;SDS011;59687;37.520;15.068;2023-02-04T07:12:41;8.60;;;4.88;;
71838;SDS011;59687;37.520;15.068;2023-02-04T07:15:09;7.63;;;4.05;;
71838;SDS011;59687;37.520;15.068;2023-02-04T07:17:36;7.70;;;4.38;;
71838;SDS011;59687;37.520;15.068;2023-02-04T07:20:06;7.57;;;4.10;;
71838;SDS011;59687;37.520;15.068;2023-02-04T07:22:34;6.95;;;3.45;;
71838;SDS011;59687;37.520;15.068;2023-02-04T07:25:01;13.63;;;5.32;;
71838;SDS011;59687;37.520;15.068;2023-02-04T07:27:29;7.97;;;4.13;;
71838;SDS011;59687;37.520;15.068;2023-02-04T07:29:56;8.70;;;4.20;;
71838;SDS011;59687;37.520;15.068;2023-02-04T07:32:23;11.93;;;6.33;;
71838;SDS011;59687;37.520;15.068;2023-02-04T07:34:50;11.32;;;7.07;;
71838;SDS011;59687;37.520;15.068;2023-02-04T07:37:17;11.55;;;6.10;;
71838;SDS011;59687;37.520;15.068;2023-02-04T07:39:49;12.82;;;6.28;;
71838;SDS011;59687;37.520;15.068;2023-02-04T07:42:17;8.15;;;5.00;;
71838;SDS011;59687;37.520;15.068;2023-02-04T07:44:51;8.03;;;4.40;;
71838;SDS011;59687;37.520;15.068;2023-02-04T07:47:19;8.07;;;4.10;;
71838;SDS011;59687;37.520;15.068;2023-02-04T07:49:51;9.18;;;4.90;;
71838;SDS011;59687;37.520;15.068;2023-02-04T07:52:23;5.68;;;3.33;;
71838;SDS011;59687;37.520;15.068;2023-02-04T07:54:54;8.15;;;5.05;;
71838;SDS011;59687;37.520;15.068;2023-02-04T07:57:20;8.13;;;3.70;;
71838;SDS011;59687;37.520;15.068;2023-02-04T07:59:48;8.13;;;4.63;;
71838;SDS011;59687;37.520;15.068;2023-02-04T08:02:14;10.02;;;4.60;;
71838;SDS011;59687;37.520;15.068;2023-02-04T08:04:42;7.63;;;3.60;;
71838;SDS011;59687;37.520;15.068;2023-02-04T08:07:09;7.10;;;4.18;;
71838;SDS011;59687;37.520;15.068;2023-02-04T08:09:36;8.57;;;3.50;;
71838;SDS011;59687;37.520;15.068;2023-02-04T08:12:03;10.50;;;3.85;;
71838;SDS011;59687;37.520;15.068;2023-02-04T08:14:33;9.73;;;4.40;;
71838;SDS011;59687;37.520;15.068;2023-02-04T08:17:00;8.60;;;3.75;;
71838;SDS011;59687;37.520;15.068;2023-02-04T08:19:27;6.97;;;3.40;;
71838;SDS011;59687;37.520;15.068;2023-02-04T08:21:56;8.70;;;3.63;;
71838;SDS011;59687;37.520;15.068;2023-02-04T08:24:23;8.45;;;4.43;;
71838;SDS011;59687;37.520;15.068;2023-02-04T08:26:52;7.38;;;3.42;;
71838;SDS011;59687;37.520;15.068;2023-02-04T08:29:19;6.82;;;2.78;;
71838;SDS011;59687;37.520;15.068;2023-02-04T08:31:48;6.15;;;3.05;;
71838;SDS011;59687;37.520;15.068;2023-02-04T08:34:21;7.50;;;3.53;;
71838;SDS011;59687;37.520;15.068;2023-02-04T08:36:49;8.60;;;3.92;;
71838;SDS011;59687;37.520;15.068;2023-02-04T08:39:19;9.18;;;4.50;;
71838;SDS011;59687;37.520;15.068;2023-02-04T08:41:46;9.48;;;4.22;;
71838;SDS011;59687;37.520;15.068;2023-02-04T08:44:16;7.20;;;4.10;;
71838;SDS011;59687;37.520;15.068;2023-02-04T08:46:46;7.07;;;3.97;;
71838;SDS011;59687;37.520;15.068;2023-02-04T08:49:13;7.20;;;3.47;;
71838;SDS011;59687;37.520;15.068;2023-02-04T08:51:39;7.45;;;3.22;;
71838;SDS011;59687;37.520;15.068;2023-02-04T08:54:10;5.70;;;2.60;;
71838;SDS011;59687;37.520;15.068;2023-02-04T08:56:37;4.93;;;2.20;;
71838;SDS011;59687;37.520;15.068;2023-02-04T08:59:12;5.00;;;2.53;;
71838;SDS011;59687;37.520;15.068;2023-02-04T09:01:40;5.30;;;2.67;;
71838;SDS011;59687;37.520;15.068;2023-02-04T09:04:07;4.18;;;1.90;;
71838;SDS011;59687;37.520;15.068;2023-02-04T09:06:38;5.60;;;2.58;;
71838;SDS011;59687;37.520;15.068;2023-02-04T09:09:07;5.90;;;2.55;;
71838;SDS011;59687;37.520;15.068;2023-02-04T09:11:35;6.87;;;2.87;;
71838;SDS011;59687;37.520;15.068;2023-02-04T09:14:03;6.10;;;2.65;;
71838;SDS011;59687;37.520;15.068;2023-02-04T09:16:30;6.15;;;2.70;;
71838;SDS011;59687;37.520;15.068;2023-02-04T09:18:57;6.90;;;2.83;;
71838;SDS011;59687;37.520;15.068;2023-02-04T09:21:26;6.30;;;2.85;;
71838;SDS011;59687;37.520;15.068;2023-02-04T09:23:53;6.27;;;3.23;;
71838;SDS011;59687;37.520;15.068;2023-02-04T09:26:20;6.20;;;2.83;;
71838;SDS011;59687;37.520;15.068;2023-02-04T09:28:47;6.50;;;3.50;;
71838;SDS011;59687;37.520;15.068;2023-02-04T09:31:14;8.02;;;3.30;;
71838;SDS011;59687;37.520;15.068;2023-02-04T09:33:44;6.97;;;2.72;;
71838;SDS011;59687;37.520;15.068;2023-02-04T09:36:11;5.77;;;2.90;;
71838;SDS011;59687;37.520;15.068;2023-02-04T09:38:40;8.07;;;4.28;;
71838;SDS011;59687;37.520;15.068;2023-02-04T09:41:07;6.65;;;3.15;;
71838;SDS011;59687;37.520;15.068;2023-02-04T09:43:41;5.68;;;2.67;;
71838;SDS011;59687;37.520;15.068;2023-02-04T09:46:20;4.85;;;2.00;;
71838;SDS011;59687;37.520;15.068;2023-02-04T09:48:53;6.37;;;2.90;;
71838;SDS011;59687;37.520;15.068;2023-02-04T09:51:22;7.25;;;2.88;;
71838;SDS011;59687;37.520;15.068;2023-02-04T09:53:52;6.72;;;2.58;;
71838;SDS011;59687;37.520;15.068;2023-02-04T09:56:26;7.95;;;2.80;;
71838;SDS011;59687;37.520;15.068;2023-02-04T09:58:54;5.55;;;3.05;;
71838;SDS011;59687;37.520;15.068;2023-02-04T10:01:21;5.70;;;1.80;;
71838;SDS011;59687;37.520;15.068;2023-02-04T10:04:10;7.07;;;2.67;;
71838;SDS011;59687;37.520;15.068;2023-02-04T10:06:40;6.95;;;2.30;;
71838;SDS011;59687;37.520;15.068;2023-02-04T10:09:15;6.07;;;2.70;;
71838;SDS011;59687;37.520;15.068;2023-02-04T10:11:43;6.05;;;2.63;;
71838;SDS011;59687;37.520;15.068;2023-02-04T10:14:14;5.83;;;2.13;;
71838;SDS011;59687;37.520;15.068;2023-02-04T10:16:47;6.70;;;2.38;;
71838;SDS011;59687;37.520;15.068;2023-02-04T10:19:18;5.75;;;2.50;;
71838;SDS011;59687;37.520;15.068;2023-02-04T10:21:49;5.15;;;2.53;;
71838;SDS011;59687;37.520;15.068;2023-02-04T10:24:20;4.38;;;2.33;;
71838;SDS011;59687;37.520;15.068;2023-02-04T10:26:52;7.33;;;2.57;;
71838;SDS011;59687;37.520;15.068;2023-02-04T10:29:23;5.38;;;2.20;;
71838;SDS011;59687;37.520;15.068;2023-02-04T10:31:51;4.65;;;1.90;;
71838;SDS011;59687;37.520;15.068;2023-02-04T10:34:22;4.53;;;1.58;;
71838;SDS011;59687;37.520;15.068;2023-02-04T10:37:19;5.40;;;2.58;;
71838;SDS011;59687;37.520;15.068;2023-02-04T10:39:48;4.37;;;1.83;;
71838;SDS011;59687;37.520;15.068;2023-02-04T10:42:24;4.88;;;1.42;;
71838;SDS011;59687;37.520;15.068;2023-02-04T10:44:53;6.72;;;1.58;;
71838;SDS011;59687;37.520;15.068;2023-02-04T10:49:55;4.15;;;1.70;;
71838;SDS011;59687;37.520;15.068;2023-02-04T10:52:36;5.17;;;1.60;;
71838;SDS011;59687;37.520;15.068;2023-02-04T10:55:12;5.00;;;2.38;;
71838;SDS011;59687;37.520;15.068;2023-02-04T10:57:45;6.05;;;1.40;;
71838;SDS011;59687;37.520;15.068;2023-02-04T11:00:22;4.70;;;1.90;;
71838;SDS011;59687;37.520;15.068;2023-02-04T11:05:35;4.47;;;1.23;;
71838;SDS011;59687;37.520;15.068;2023-02-04T11:08:16;5.15;;;1.67;;
71838;SDS011;59687;37.520;15.068;2023-02-04T11:10:56;5.70;;;2.03;;
71838;SDS011;59687;37.520;15.068;2023-02-04T11:18:45;4.43;;;1.93;;
71838;SDS011;59687;37.520;15.068;2023-02-04T11:21:22;4.90;;;1.80;;
71838;SDS011;59687;37.520;15.068;2023-02-04T11:30:06;4.20;;;1.85;;
71838;SDS011;59687;37.520;15.068;2023-02-04T11:33:03;5.80;;;1.80;;
71838;SDS011;59687;37.520;15.068;2023-02-04T11:35:34;5.30;;;1.77;;
71838;SDS011;59687;37.520;15.068;2023-02-04T11:38:01;4.68;;;1.73;;
71838;SDS011;59687;37.520;15.068;2023-02-04T11:40:35;4.97;;;1.90;;
71838;SDS011;59687;37.520;15.068;2023-02-04T11:43:09;5.72;;;1.83;;
71838;SDS011;59687;37.520;15.068;2023-02-04T11:45:40;4.63;;;1.73;;
71838;SDS011;59687;37.520;15.068;2023-02-04T11:48:18;5.00;;;2.10;;
71838;SDS011;59687;37.520;15.068;2023-02-04T11:50:55;5.03;;;2.13;;
71838;SDS011;59687;37.520;15.068;2023-02-04T11:53:23;5.40;;;1.90;;
71838;SDS011;59687;37.520;15.068;2023-02-04T11:55:54;4.60;;;1.50;;
71838;SDS011;59687;37.520;15.068;2023-02-04T11:58:23;4.78;;;1.42;;
71838;SDS011;59687;37.520;15.068;2023-02-04T12:00:51;5.37;;;1.77;;
71838;SDS011;59687;37.520;15.068;2023-02-04T12:03:25;4.35;;;1.60;;
71838;SDS011;59687;37.520;15.068;2023-02-04T12:05:58;5.10;;;1.85;;
71838;SDS011;59687;37.520;15.068;2023-02-04T12:08:30;4.28;;;1.70;;
71838;SDS011;59687;37.520;15.068;2023-02-04T12:11:01;5.38;;;1.60;;
71838;SDS011;59687;37.520;15.068;2023-02-04T12:13:32;5.13;;;1.73;;
71838;SDS011;59687;37.520;15.068;2023-02-04T12:18:31;4.47;;;1.40;;
71838;SDS011;59687;37.520;15.068;2023-02-04T12:21:00;4.20;;;1.42;;
71838;SDS011;59687;37.520;15.068;2023-02-04T12:23:33;4.85;;;1.45;;
71838;SDS011;59687;37.520;15.068;2023-02-04T12:26:00;4.23;;;1.40;;
71838;SDS011;59687;37.520;15.068;2023-02-04T12:28:27;4.30;;;1.23;;
71838;SDS011;59687;37.520;15.068;2023-02-04T12:30:54;6.05;;;1.70;;
71838;SDS011;59687;37.520;15.068;2023-02-04T12:33:22;4.95;;;1.30;;
71838;SDS011;59687;37.520;15.068;2023-02-04T12:35:50;4.75;;;1.45;;
71838;SDS011;59687;37.520;15.068;2023-02-04T12:38:21;4.30;;;1.50;;
71838;SDS011;59687;37.520;15.068;2023-02-04T12:40:48;4.30;;;1.52;;
71838;SDS011;59687;37.520;15.068;2023-02-04T12:43:15;4.65;;;1.55;;
71838;SDS011;59687;37.520;15.068;2023-02-04T12:45:42;4.75;;;1.50;;
71838;SDS011;59687;37.520;15.068;2023-02-04T12:48:11;4.95;;;1.70;;
71838;SDS011;59687;37.520;15.068;2023-02-04T12:50:39;4.53;;;1.67;;
71838;SDS011;59687;37.520;15.068;2023-02-04T12:53:06;4.63;;;1.50;;
71838;SDS011;59687;37.520;15.068;2023-02-04T12:55:35;4.40;;;1.50;;
71838;SDS011;59687;37.520;15.068;2023-02-04T12:58:02;4.38;;;1.35;;
71838;SDS011;59687;37.520;15.068;2023-02-04T13:00:30;4.80;;;1.40;;
71838;SDS011;59687;37.520;15.068;2023-02-04T13:03:00;4.57;;;1.30;;
71838;SDS011;59687;37.520;15.068;2023-02-04T13:05:27;4.10;;;1.33;;
71838;SDS011;59687;37.520;15.068;2023-02-04T13:07:54;3.90;;;1.50;;
71838;SDS011;59687;37.520;15.068;2023-02-04T13:10:23;4.40;;;1.30;;
71838;SDS011;59687;37.520;15.068;2023-02-04T13:12:50;4.85;;;1.42;;
71838;SDS011;59687;37.520;15.068;2023-02-04T13:15:17;4.77;;;1.43;;
71838;SDS011;59687;37.520;15.068;2023-02-04T13:17:44;5.20;;;1.60;;
71838;SDS011;59687;37.520;15.068;2023-02-04T13:20:11;4.05;;;1.40;;
71838;SDS011;59687;37.520;15.068;2023-02-04T13:22:42;4.97;;;2.08;;
71838;SDS011;59687;37.520;15.068;2023-02-04T13:25:11;4.38;;;1.30;;
71838;SDS011;59687;37.520;15.068;2023-02-04T13:27:40;4.17;;;1.80;;
71838;SDS011;59687;37.520;15.068;2023-02-04T13:30:07;4.30;;;1.17;;
71838;SDS011;59687;37.520;15.068;2023-02-04T13:32:36;5.20;;;1.73;;
71838;SDS011;59687;37.520;15.068;2023-02-04T13:35:03;4.40;;;1.40;;
71838;SDS011;59687;37.520;15.068;2023-02-04T13:37:33;4.85;;;1.58;;
71838;SDS011;59687;37.520;15.068;2023-02-04T13:40:02;4.13;;;1.47;;
71838;SDS011;59687;37.520;15.068;2023-02-04T13:42:41;6.53;;;1.20;;
71838;SDS011;59687;37.520;15.068;2023-02-04T13:45:08;5.05;;;1.48;;
71838;SDS011;59687;37.520;15.068;2023-02-04T13:47:38;4.75;;;1.20;;
71838;SDS011;59687;37.520;15.068;2023-02-04T13:50:06;5.40;;;1.20;;
71838;SDS011;59687;37.520;15.068;2023-02-04T13:52:36;4.80;;;1.37;;
71838;SDS011;59687;37.520;15.068;2023-02-04T13:55:04;4.53;;;1.50;;
71838;SDS011;59687;37.520;15.068;2023-02-04T13:57:40;5.15;;;1.42;;
71838;SDS011;59687;37.520;15.068;2023-02-04T14:00:10;3.97;;;1.38;;
71838;SDS011;59687;37.520;15.068;2023-02-04T14:02:39;4.57;;;1.40;;
71838;SDS011;59687;37.520;15.068;2023-02-04T14:05:06;5.37;;;1.70;;
71838;SDS011;59687;37.520;15.068;2023-02-04T14:07:33;4.90;;;1.15;;
71838;SDS011;59687;37.520;15.068;2023-02-04T14:10:00;4.53;;;1.52;;
71838;SDS011;59687;37.520;15.068;2023-02-04T14:12:30;4.45;;;1.23;;
71838;SDS011;59687;37.520;15.068;2023-02-04T14:15:10;4.13;;;1.25;;
71838;SDS011;59687;37.520;15.068;2023-02-04T14:17:37;3.57;;;1.40;;
71838;SDS011;59687;37.520;15.068;2023-02-04T14:20:04;5.05;;;1.42;;
71838;SDS011;59687;37.520;15.068;2023-02-04T14:22:35;5.13;;;1.33;;
71838;SDS011;59687;37.520;15.068;2023-02-04T14:25:02;5.60;;;1.70;;
71838;SDS011;59687;37.520;15.068;2023-02-04T14:27:30;3.70;;;1.30;;
71838;SDS011;59687;37.520;15.068;2023-02-04T14:29:57;6.27;;;1.60;;
71838;SDS011;59687;37.520;15.068;2023-02-04T14:32:24;4.53;;;1.63;;
71838;SDS011;59687;37.520;15.068;2023-02-04T14:34:51;4.70;;;1.75;;
71838;SDS011;59687;37.520;15.068;2023-02-04T14:37:18;4.50;;;1.50;;
71838;SDS011;59687;37.520;15.068;2023-02-04T14:39:53;3.90;;;1.42;;
71838;SDS011;59687;37.520;15.068;2023-02-04T14:42:20;4.73;;;1.27;;
71838;SDS011;59687;37.520;15.068;2023-02-04T14:44:47;4.85;;;1.80;;
71838;SDS011;59687;37.520;15.068;2023-02-04T14:47:14;5.00;;;1.50;;
71838;SDS011;59687;37.520;15.068;2023-02-04T14:49:41;4.30;;;1.70;;
71838;SDS011;59687;37.520;15.068;2023-02-04T14:52:10;4.63;;;1.48;;
71838;SDS011;59687;37.520;15.068;2023-02-04T14:54:40;5.53;;;1.70;;
71838;SDS011;59687;37.520;15.068;2023-02-04T14:57:08;5.72;;;1.48;;
71838;SDS011;59687;37.520;15.068;2023-02-04T14:59:37;4.20;;;1.35;;
71838;SDS011;59687;37.520;15.068;2023-02-04T15:02:04;4.20;;;1.40;;
71838;SDS011;59687;37.520;15.068;2023-02-04T15:04:36;3.80;;;1.48;;
71838;SDS011;59687;37.520;15.068;2023-02-04T15:07:03;3.90;;;1.20;;
71838;SDS011;59687;37.520;15.068;2023-02-04T15:09:34;4.00;;;1.48;;
71838;SDS011;59687;37.520;15.068;2023-02-04T15:12:01;3.92;;;1.52;;
71838;SDS011;59687;37.520;15.068;2023-02-04T15:14:28;5.45;;;1.40;;